sensor_id;sensor_type;location;lat;lon;timestamp;temperature;humidity
52709;DHT22;38606;52.986;6.980;2024-02-21T00:02:09;10.50;99.90
52709;DHT22;38606;52.986;6.980;2024-02-21T00:04:35;9.50;99.90
52709;DHT22;38606;52.986;6.980;2024-02-21T00:07:02;9.40;99.90
52709;DHT22;38606;52.986;6.980;2024-02-21T00:09:27;9.40;99.90
52709;DHT22;38606;52.986;6.980;2024-02-21T00:11:53;9.50;99.90
52709;DHT22;38606;52.986;6.980;2024-02-21T00:14:19;9.60;99.90
52709;DHT22;38606;52.986;6.980;2024-02-21T00:16:45;9.30;99.90
52709;DHT22;38606;52.986;6.980;2024-02-21T00:19:11;9.40;99.90
52709;DHT22;38606;52.986;6.980;2024-02-21T00:21:36;9.60;99.90
52709;DHT22;38606;52.986;6.980;2024-02-21T00:24:02;9.50;99.90
52709;DHT22;38606;52.986;6.980;2024-02-21T00:26:28;9.60;99.90
52709;DHT22;38606;52.986;6.980;2024-02-21T00:28:53;9.70;99.90
52709;DHT22;38606;52.986;6.980;2024-02-21T00:31:19;9.40;99.90
52709;DHT22;38606;52.986;6.980;2024-02-21T00:33:45;9.70;99.90
52709;DHT22;38606;52.986;6.980;2024-02-21T00:36:10;9.50;99.90
52709;DHT22;38606;52.986;6.980;2024-02-21T00:38:36;9.40;99.90
52709;DHT22;38606;52.986;6.980;2024-02-21T00:41:02;9.50;99.90
52709;DHT22;38606;52.986;6.980;2024-02-21T00:43:27;9.70;99.90
52709;DHT22;38606;52.986;6.980;2024-02-21T00:45:53;9.60;99.90
52709;DHT22;38606;52.986;6.980;2024-02-21T00:48:19;9.60;99.90
52709;DHT22;38606;52.986;6.980;2024-02-21T00:50:44;9.40;99.90
52709;DHT22;38606;52.986;6.980;2024-02-21T00:53:10;9.90;99.90
52709;DHT22;38606;52.986;6.980;2024-02-21T00:55:36;9.50;99.90
52709;DHT22;38606;52.986;6.980;2024-02-21T00:58:01;9.80;99.90
52709;DHT22;38606;52.986;6.980;2024-02-21T01:00:27;9.30;99.90
52709;DHT22;38606;52.986;6.980;2024-02-21T01:02:53;9.50;99.90
52709;DHT22;38606;52.986;6.980;2024-02-21T01:05:19;9.60;99.90
52709;DHT22;38606;52.986;6.980;2024-02-21T01:07:45;9.50;99.90
52709;DHT22;38606;52.986;6.980;2024-02-21T01:10:11;9.30;99.90
52709;DHT22;38606;52.986;6.980;2024-02-21T01:12:37;9.70;99.90
52709;DHT22;38606;52.986;6.980;2024-02-21T01:15:03;9.60;99.90
52709;DHT22;38606;52.986;6.980;2024-02-21T01:17:28;9.50;99.90
52709;DHT22;38606;52.986;6.980;2024-02-21T01:19:54;9.60;99.90
52709;DHT22;38606;52.986;6.980;2024-02-21T01:22:20;9.80;99.90
52709;DHT22;38606;52.986;6.980;2024-02-21T01:24:45;9.60;99.90
52709;DHT22;38606;52.986;6.980;2024-02-21T01:27:11;9.60;99.90
52709;DHT22;38606;52.986;6.980;2024-02-21T01:29:37;9.40;99.90
52709;DHT22;38606;52.986;6.980;2024-02-21T01:32:03;9.50;99.90
52709;DHT22;38606;52.986;6.980;2024-02-21T01:34:28;9.50;99.90
52709;DHT22;38606;52.986;6.980;2024-02-21T01:36:54;9.50;99.90
52709;DHT22;38606;52.986;6.980;2024-02-21T01:39:20;9.40;99.90
52709;DHT22;38606;52.986;6.980;2024-02-21T01:41:45;9.50;99.90
52709;DHT22;38606;52.986;6.980;2024-02-21T01:44:11;9.50;99.90
52709;DHT22;38606;52.986;6.980;2024-02-21T01:46:37;9.30;99.90
52709;DHT22;38606;52.986;6.980;2024-02-21T01:49:03;9.80;99.90
52709;DHT22;38606;52.986;6.980;2024-02-21T01:51:30;9.60;99.90
52709;DHT22;38606;52.986;6.980;2024-02-21T01:53:57;9.50;99.90
52709;DHT22;38606;52.986;6.980;2024-02-21T01:56:23;9.30;99.90
52709;DHT22;38606;52.986;6.980;2024-02-21T01:58:49;9.40;99.90
52709;DHT22;38606;52.986;6.980;2024-02-21T02:01:17;9.60;99.90
52709;DHT22;38606;52.986;6.980;2024-02-21T02:03:45;9.70;99.90
52709;DHT22;38606;52.986;6.980;2024-02-21T02:06:10;9.50;99.90
52709;DHT22;38606;52.986;6.980;2024-02-21T02:08:36;8.60;99.90
52709;DHT22;38606;52.986;6.980;2024-02-21T02:11:03;9.30;99.90
52709;DHT22;38606;52.986;6.980;2024-02-21T02:13:28;9.50;99.90
52709;DHT22;38606;52.986;6.980;2024-02-21T02:15:54;9.40;99.90
52709;DHT22;38606;52.986;6.980;2024-02-21T02:18:20;9.30;99.90
52709;DHT22;38606;52.986;6.980;2024-02-21T02:20:47;9.30;99.90
52709;DHT22;38606;52.986;6.980;2024-02-21T02:23:28;9.80;99.90
52709;DHT22;38606;52.986;6.980;2024-02-21T02:25:54;9.40;99.90
52709;DHT22;38606;52.986;6.980;2024-02-21T02:28:21;9.20;99.90
52709;DHT22;38606;52.986;6.980;2024-02-21T02:30:47;9.50;99.90
52709;DHT22;38606;52.986;6.980;2024-02-21T02:33:13;10.00;99.90
52709;DHT22;38606;52.986;6.980;2024-02-21T02:35:39;9.20;99.90
52709;DHT22;38606;52.986;6.980;2024-02-21T02:38:05;9.30;99.90
52709;DHT22;38606;52.986;6.980;2024-02-21T02:40:34;9.60;99.90
52709;DHT22;38606;52.986;6.980;2024-02-21T02:43:00;10.20;99.90
52709;DHT22;38606;52.986;6.980;2024-02-21T02:45:26;9.00;99.90
52709;DHT22;38606;52.986;6.980;2024-02-21T02:47:52;9.20;99.90
52709;DHT22;38606;52.986;6.980;2024-02-21T02:50:23;9.10;99.90
52709;DHT22;38606;52.986;6.980;2024-02-21T02:52:49;9.20;99.90
52709;DHT22;38606;52.986;6.980;2024-02-21T02:55:15;8.90;99.90
52709;DHT22;38606;52.986;6.980;2024-02-21T02:57:41;9.00;99.90
52709;DHT22;38606;52.986;6.980;2024-02-21T03:00:13;9.10;99.90
52709;DHT22;38606;52.986;6.980;2024-02-21T03:02:41;9.20;99.90
52709;DHT22;38606;52.986;6.980;2024-02-21T03:05:20;8.90;99.90
52709;DHT22;38606;52.986;6.980;2024-02-21T03:07:46;9.10;99.90
52709;DHT22;38606;52.986;6.980;2024-02-21T03:10:13;9.10;99.90
52709;DHT22;38606;52.986;6.980;2024-02-21T03:12:39;8.90;99.90
52709;DHT22;38606;52.986;6.980;2024-02-21T03:15:06;9.10;99.90
52709;DHT22;38606;52.986;6.980;2024-02-21T03:17:32;9.10;99.90
52709;DHT22;38606;52.986;6.980;2024-02-21T03:20:00;9.10;99.90
52709;DHT22;38606;52.986;6.980;2024-02-21T03:22:26;9.50;99.90
52709;DHT22;38606;52.986;6.980;2024-02-21T03:24:51;8.90;99.90
52709;DHT22;38606;52.986;6.980;2024-02-21T03:27:17;8.80;99.90
52709;DHT22;38606;52.986;6.980;2024-02-21T03:29:43;8.90;99.90
52709;DHT22;38606;52.986;6.980;2024-02-21T03:32:09;9.00;99.90
52709;DHT22;38606;52.986;6.980;2024-02-21T03:34:35;8.90;99.90
52709;DHT22;38606;52.986;6.980;2024-02-21T03:37:01;9.10;99.90
52709;DHT22;38606;52.986;6.980;2024-02-21T03:39:27;9.80;99.90
52709;DHT22;38606;52.986;6.980;2024-02-21T03:41:53;9.10;99.90
52709;DHT22;38606;52.986;6.980;2024-02-21T03:44:19;8.90;99.90
52709;DHT22;38606;52.986;6.980;2024-02-21T03:46:44;8.90;99.90
52709;DHT22;38606;52.986;6.980;2024-02-21T03:49:10;9.00;99.90
52709;DHT22;38606;52.986;6.980;2024-02-21T03:51:37;9.00;99.90
52709;DHT22;38606;52.986;6.980;2024-02-21T03:54:02;9.20;99.90
52709;DHT22;38606;52.986;6.980;2024-02-21T03:56:28;9.00;99.90
52709;DHT22;38606;52.986;6.980;2024-02-21T03:58:54;9.20;99.90
52709;DHT22;38606;52.986;6.980;2024-02-21T04:01:19;9.00;99.90
52709;DHT22;38606;52.986;6.980;2024-02-21T04:03:45;9.00;99.90
52709;DHT22;38606;52.986;6.980;2024-02-21T04:06:11;8.90;99.90
52709;DHT22;38606;52.986;6.980;2024-02-21T04:08:36;9.00;99.90
52709;DHT22;38606;52.986;6.980;2024-02-21T04:11:02;8.90;99.90
52709;DHT22;38606;52.986;6.980;2024-02-21T04:13:28;9.00;99.90
52709;DHT22;38606;52.986;6.980;2024-02-21T04:15:54;9.40;99.90
52709;DHT22;38606;52.986;6.980;2024-02-21T04:18:19;9.00;99.90
52709;DHT22;38606;52.986;6.980;2024-02-21T04:20:45;9.10;99.90
52709;DHT22;38606;52.986;6.980;2024-02-21T04:23:11;9.00;99.90
52709;DHT22;38606;52.986;6.980;2024-02-21T04:25:37;9.00;99.90
52709;DHT22;38606;52.986;6.980;2024-02-21T04:28:02;8.90;99.90
52709;DHT22;38606;52.986;6.980;2024-02-21T04:30:28;9.00;99.90
52709;DHT22;38606;52.986;6.980;2024-02-21T04:32:54;9.10;99.90
52709;DHT22;38606;52.986;6.980;2024-02-21T04:35:20;9.50;99.90
52709;DHT22;38606;52.986;6.980;2024-02-21T04:37:46;9.00;99.90
52709;DHT22;38606;52.986;6.980;2024-02-21T04:40:11;9.00;99.90
52709;DHT22;38606;52.986;6.980;2024-02-21T04:42:38;8.90;99.90
52709;DHT22;38606;52.986;6.980;2024-02-21T04:45:04;9.10;99.90
52709;DHT22;38606;52.986;6.980;2024-02-21T04:47:30;9.00;99.90
52709;DHT22;38606;52.986;6.980;2024-02-21T04:49:56;9.90;99.90
52709;DHT22;38606;52.986;6.980;2024-02-21T04:52:22;9.10;99.90
52709;DHT22;38606;52.986;6.980;2024-02-21T04:54:47;9.40;99.90
52709;DHT22;38606;52.986;6.980;2024-02-21T04:57:13;9.70;99.90
52709;DHT22;38606;52.986;6.980;2024-02-21T04:59:44;8.80;99.90
52709;DHT22;38606;52.986;6.980;2024-02-21T05:02:10;9.10;99.90
52709;DHT22;38606;52.986;6.980;2024-02-21T05:04:36;8.90;99.90
52709;DHT22;38606;52.986;6.980;2024-02-21T05:07:04;9.00;99.90
52709;DHT22;38606;52.986;6.980;2024-02-21T05:09:30;9.10;99.90
52709;DHT22;38606;52.986;6.980;2024-02-21T05:11:55;9.10;99.90
52709;DHT22;38606;52.986;6.980;2024-02-21T05:14:21;9.20;99.90
52709;DHT22;38606;52.986;6.980;2024-02-21T05:16:47;9.10;99.90
52709;DHT22;38606;52.986;6.980;2024-02-21T05:19:12;9.30;99.90
52709;DHT22;38606;52.986;6.980;2024-02-21T05:21:38;9.00;99.90
52709;DHT22;38606;52.986;6.980;2024-02-21T05:24:04;8.80;99.90
52709;DHT22;38606;52.986;6.980;2024-02-21T05:26:30;9.10;99.90
52709;DHT22;38606;52.986;6.980;2024-02-21T05:28:55;8.90;99.90
52709;DHT22;38606;52.986;6.980;2024-02-21T05:31:21;9.00;99.90
52709;DHT22;38606;52.986;6.980;2024-02-21T05:33:47;8.90;99.90
52709;DHT22;38606;52.986;6.980;2024-02-21T05:36:13;9.00;99.90
52709;DHT22;38606;52.986;6.980;2024-02-21T05:38:39;9.00;99.90
52709;DHT22;38606;52.986;6.980;2024-02-21T05:41:05;10.20;99.90
52709;DHT22;38606;52.986;6.980;2024-02-21T05:43:31;9.00;99.90
52709;DHT22;38606;52.986;6.980;2024-02-21T05:45:57;9.60;99.90
52709;DHT22;38606;52.986;6.980;2024-02-21T05:48:23;9.30;99.90
52709;DHT22;38606;52.986;6.980;2024-02-21T05:50:49;9.10;99.90
52709;DHT22;38606;52.986;6.980;2024-02-21T05:53:15;8.90;99.90
52709;DHT22;38606;52.986;6.980;2024-02-21T05:55:41;9.00;99.90
52709;DHT22;38606;52.986;6.980;2024-02-21T05:58:07;9.00;99.90
52709;DHT22;38606;52.986;6.980;2024-02-21T06:00:36;9.10;99.90
52709;DHT22;38606;52.986;6.980;2024-02-21T06:03:02;9.10;99.90
52709;DHT22;38606;52.986;6.980;2024-02-21T06:05:28;9.10;99.90
52709;DHT22;38606;52.986;6.980;2024-02-21T06:07:53;8.90;99.90
52709;DHT22;38606;52.986;6.980;2024-02-21T06:10:19;9.10;99.90
52709;DHT22;38606;52.986;6.980;2024-02-21T06:12:45;9.10;99.90
52709;DHT22;38606;52.986;6.980;2024-02-21T06:15:10;9.90;99.90
52709;DHT22;38606;52.986;6.980;2024-02-21T06:17:36;9.20;99.90
52709;DHT22;38606;52.986;6.980;2024-02-21T06:20:02;9.00;99.90
52709;DHT22;38606;52.986;6.980;2024-02-21T06:22:29;9.00;99.90
52709;DHT22;38606;52.986;6.980;2024-02-21T06:24:55;9.10;99.90
52709;DHT22;38606;52.986;6.980;2024-02-21T06:27:21;8.90;99.90
52709;DHT22;38606;52.986;6.980;2024-02-21T06:29:47;9.10;99.90
52709;DHT22;38606;52.986;6.980;2024-02-21T06:32:12;8.90;99.90
52709;DHT22;38606;52.986;6.980;2024-02-21T06:34:38;9.10;99.90
52709;DHT22;38606;52.986;6.980;2024-02-21T06:37:04;9.00;99.90
52709;DHT22;38606;52.986;6.980;2024-02-21T06:39:29;8.90;99.90
52709;DHT22;38606;52.986;6.980;2024-02-21T06:41:55;9.10;99.90
52709;DHT22;38606;52.986;6.980;2024-02-21T06:44:24;9.20;99.90
52709;DHT22;38606;52.986;6.980;2024-02-21T06:46:50;9.00;99.90
52709;DHT22;38606;52.986;6.980;2024-02-21T06:49:15;9.10;99.90
52709;DHT22;38606;52.986;6.980;2024-02-21T06:51:44;9.00;99.90
52709;DHT22;38606;52.986;6.980;2024-02-21T06:54:10;9.10;99.90
52709;DHT22;38606;52.986;6.980;2024-02-21T06:56:37;9.00;99.90
52709;DHT22;38606;52.986;6.980;2024-02-21T06:59:03;9.00;99.90
52709;DHT22;38606;52.986;6.980;2024-02-21T07:01:29;8.90;99.90
52709;DHT22;38606;52.986;6.980;2024-02-21T07:03:55;9.00;99.90
52709;DHT22;38606;52.986;6.980;2024-02-21T07:06:22;9.00;99.90
52709;DHT22;38606;52.986;6.980;2024-02-21T07:08:48;9.00;99.90
52709;DHT22;38606;52.986;6.980;2024-02-21T07:11:14;9.10;99.90
52709;DHT22;38606;52.986;6.980;2024-02-21T07:13:39;9.20;99.90
52709;DHT22;38606;52.986;6.980;2024-02-21T07:16:06;9.10;99.90
52709;DHT22;38606;52.986;6.980;2024-02-21T07:18:32;9.30;99.90
52709;DHT22;38606;52.986;6.980;2024-02-21T07:20:58;9.10;99.90
52709;DHT22;38606;52.986;6.980;2024-02-21T07:23:24;9.10;99.90
52709;DHT22;38606;52.986;6.980;2024-02-21T07:25:50;9.20;99.90
52709;DHT22;38606;52.986;6.980;2024-02-21T07:28:15;10.00;99.90
52709;DHT22;38606;52.986;6.980;2024-02-21T07:30:42;9.30;99.90
52709;DHT22;38606;52.986;6.980;2024-02-21T07:33:08;9.10;99.90
52709;DHT22;38606;52.986;6.980;2024-02-21T07:35:34;9.20;99.90
52709;DHT22;38606;52.986;6.980;2024-02-21T07:38:00;9.00;99.90
52709;DHT22;38606;52.986;6.980;2024-02-21T07:40:25;9.10;99.90
52709;DHT22;38606;52.986;6.980;2024-02-21T07:42:51;9.40;99.90
52709;DHT22;38606;52.986;6.980;2024-02-21T07:45:17;9.20;99.90
52709;DHT22;38606;52.986;6.980;2024-02-21T07:47:43;9.30;99.90
52709;DHT22;38606;52.986;6.980;2024-02-21T07:50:09;9.10;99.90
52709;DHT22;38606;52.986;6.980;2024-02-21T07:52:35;9.00;99.90
52709;DHT22;38606;52.986;6.980;2024-02-21T07:55:01;9.10;99.90
52709;DHT22;38606;52.986;6.980;2024-02-21T07:57:27;9.30;99.90
52709;DHT22;38606;52.986;6.980;2024-02-21T07:59:53;9.10;99.90
52709;DHT22;38606;52.986;6.980;2024-02-21T08:02:19;9.20;99.90
52709;DHT22;38606;52.986;6.980;2024-02-21T08:04:45;9.20;99.90
52709;DHT22;38606;52.986;6.980;2024-02-21T08:07:10;9.30;99.90
52709;DHT22;38606;52.986;6.980;2024-02-21T08:09:36;9.10;99.90
52709;DHT22;38606;52.986;6.980;2024-02-21T08:12:04;9.30;99.90
52709;DHT22;38606;52.986;6.980;2024-02-21T08:14:30;9.20;99.90
52709;DHT22;38606;52.986;6.980;2024-02-21T08:16:56;8.90;99.90
52709;DHT22;38606;52.986;6.980;2024-02-21T08:19:21;9.00;99.90
52709;DHT22;38606;52.986;6.980;2024-02-21T08:21:50;9.10;99.90
52709;DHT22;38606;52.986;6.980;2024-02-21T08:24:18;9.30;99.90
52709;DHT22;38606;52.986;6.980;2024-02-21T08:26:44;9.00;99.90
52709;DHT22;38606;52.986;6.980;2024-02-21T08:29:11;9.30;99.90
52709;DHT22;38606;52.986;6.980;2024-02-21T08:31:37;9.10;99.90
52709;DHT22;38606;52.986;6.980;2024-02-21T08:34:03;7.90;99.90
52709;DHT22;38606;52.986;6.980;2024-02-21T08:36:33;9.20;99.90
52709;DHT22;38606;52.986;6.980;2024-02-21T08:39:00;9.10;99.90
52709;DHT22;38606;52.986;6.980;2024-02-21T08:41:26;9.00;99.90
52709;DHT22;38606;52.986;6.980;2024-02-21T08:43:53;9.10;99.90
52709;DHT22;38606;52.986;6.980;2024-02-21T08:46:25;9.20;99.90
52709;DHT22;38606;52.986;6.980;2024-02-21T08:48:52;9.30;99.90
52709;DHT22;38606;52.986;6.980;2024-02-21T08:51:18;9.20;99.90
52709;DHT22;38606;52.986;6.980;2024-02-21T08:53:45;9.30;99.90
52709;DHT22;38606;52.986;6.980;2024-02-21T08:56:11;9.30;99.90
52709;DHT22;38606;52.986;6.980;2024-02-21T08:58:38;9.20;99.90
52709;DHT22;38606;52.986;6.980;2024-02-21T09:01:04;8.90;99.90
52709;DHT22;38606;52.986;6.980;2024-02-21T09:03:34;9.30;99.90
52709;DHT22;38606;52.986;6.980;2024-02-21T09:06:00;9.20;99.90
52709;DHT22;38606;52.986;6.980;2024-02-21T09:08:26;9.00;99.90
52709;DHT22;38606;52.986;6.980;2024-02-21T09:10:53;9.10;99.90
52709;DHT22;38606;52.986;6.980;2024-02-21T09:13:19;9.20;99.90
52709;DHT22;38606;52.986;6.980;2024-02-21T09:15:44;9.20;99.90
52709;DHT22;38606;52.986;6.980;2024-02-21T09:18:10;9.40;99.90
52709;DHT22;38606;52.986;6.980;2024-02-21T09:20:36;9.10;99.90
52709;DHT22;38606;52.986;6.980;2024-02-21T09:23:02;9.20;99.90
52709;DHT22;38606;52.986;6.980;2024-02-21T09:25:28;9.00;99.90
52709;DHT22;38606;52.986;6.980;2024-02-21T09:27:56;9.10;99.90
52709;DHT22;38606;52.986;6.980;2024-02-21T09:30:24;9.20;99.90
52709;DHT22;38606;52.986;6.980;2024-02-21T09:32:50;9.30;99.90
52709;DHT22;38606;52.986;6.980;2024-02-21T09:35:15;10.50;99.90
52709;DHT22;38606;52.986;6.980;2024-02-21T09:37:41;9.00;99.90
52709;DHT22;38606;52.986;6.980;2024-02-21T09:40:07;9.30;99.90
52709;DHT22;38606;52.986;6.980;2024-02-21T09:42:37;9.30;99.90
52709;DHT22;38606;52.986;6.980;2024-02-21T09:45:08;9.40;99.90
52709;DHT22;38606;52.986;6.980;2024-02-21T09:47:40;9.60;99.90
52709;DHT22;38606;52.986;6.980;2024-02-21T09:50:09;9.30;99.90
52709;DHT22;38606;52.986;6.980;2024-02-21T09:52:36;9.50;99.90
52709;DHT22;38606;52.986;6.980;2024-02-21T09:55:03;9.30;99.90
52709;DHT22;38606;52.986;6.980;2024-02-21T09:57:31;9.30;99.90
52709;DHT22;38606;52.986;6.980;2024-02-21T09:59:57;9.60;99.90
52709;DHT22;38606;52.986;6.980;2024-02-21T10:02:24;9.50;99.90
52709;DHT22;38606;52.986;6.980;2024-02-21T10:04:50;9.70;99.90
52709;DHT22;38606;52.986;6.980;2024-02-21T10:07:16;9.40;99.90
52709;DHT22;38606;52.986;6.980;2024-02-21T10:09:41;9.70;99.90
52709;DHT22;38606;52.986;6.980;2024-02-21T10:12:11;9.80;99.90
52709;DHT22;38606;52.986;6.980;2024-02-21T10:14:38;9.90;99.90
52709;DHT22;38606;52.986;6.980;2024-02-21T10:17:04;9.80;99.90
52709;DHT22;38606;52.986;6.980;2024-02-21T10:19:35;9.80;99.90
52709;DHT22;38606;52.986;6.980;2024-02-21T10:22:04;9.80;99.90
52709;DHT22;38606;52.986;6.980;2024-02-21T10:24:31;10.00;99.90
52709;DHT22;38606;52.986;6.980;2024-02-21T10:27:05;10.00;99.90
52709;DHT22;38606;52.986;6.980;2024-02-21T10:29:34;10.10;99.90
52709;DHT22;38606;52.986;6.980;2024-02-21T10:32:13;10.20;99.90
52709;DHT22;38606;52.986;6.980;2024-02-21T10:34:40;10.00;99.90
52709;DHT22;38606;52.986;6.980;2024-02-21T10:37:08;9.80;99.90
52709;DHT22;38606;52.986;6.980;2024-02-21T10:39:37;9.90;99.90
52709;DHT22;38606;52.986;6.980;2024-02-21T10:42:04;9.90;99.90
52709;DHT22;38606;52.986;6.980;2024-02-21T10:44:30;9.90;99.90
52709;DHT22;38606;52.986;6.980;2024-02-21T10:46:59;10.00;99.90
52709;DHT22;38606;52.986;6.980;2024-02-21T10:49:30;9.70;99.90
52709;DHT22;38606;52.986;6.980;2024-02-21T10:52:44;10.10;99.90
52709;DHT22;38606;52.986;6.980;2024-02-21T10:55:19;10.10;99.90
52709;DHT22;38606;52.986;6.980;2024-02-21T10:57:47;10.00;99.90
52709;DHT22;38606;52.986;6.980;2024-02-21T11:00:15;10.20;99.90
52709;DHT22;38606;52.986;6.980;2024-02-21T11:02:42;9.90;99.90
52709;DHT22;38606;52.986;6.980;2024-02-21T11:05:08;10.10;99.90
52709;DHT22;38606;52.986;6.980;2024-02-21T11:07:37;10.20;99.90
52709;DHT22;38606;52.986;6.980;2024-02-21T11:10:04;10.10;99.90
52709;DHT22;38606;52.986;6.980;2024-02-21T11:12:33;10.30;99.90
52709;DHT22;38606;52.986;6.980;2024-02-21T11:15:08;10.20;99.90
52709;DHT22;38606;52.986;6.980;2024-02-21T11:17:34;10.20;99.90
52709;DHT22;38606;52.986;6.980;2024-02-21T11:20:11;10.30;99.90
52709;DHT22;38606;52.986;6.980;2024-02-21T11:22:42;10.30;99.90
52709;DHT22;38606;52.986;6.980;2024-02-21T11:25:08;10.20;99.90
52709;DHT22;38606;52.986;6.980;2024-02-21T11:27:37;10.60;99.90
52709;DHT22;38606;52.986;6.980;2024-02-21T11:30:05;10.60;99.90
52709;DHT22;38606;52.986;6.980;2024-02-21T11:32:31;10.50;99.90
52709;DHT22;38606;52.986;6.980;2024-02-21T11:35:01;8.90;99.90
52709;DHT22;38606;52.986;6.980;2024-02-21T11:37:30;10.60;99.90
52709;DHT22;38606;52.986;6.980;2024-02-21T11:39:57;10.40;99.90
52709;DHT22;38606;52.986;6.980;2024-02-21T11:42:25;10.30;99.90
52709;DHT22;38606;52.986;6.980;2024-02-21T11:44:51;10.30;99.90
52709;DHT22;38606;52.986;6.980;2024-02-21T11:47:18;10.60;99.90
52709;DHT22;38606;52.986;6.980;2024-02-21T11:49:46;10.50;99.90
52709;DHT22;38606;52.986;6.980;2024-02-21T11:52:12;10.40;99.90
52709;DHT22;38606;52.986;6.980;2024-02-21T11:54:41;10.50;99.90
52709;DHT22;38606;52.986;6.980;2024-02-21T11:57:07;10.70;99.90
52709;DHT22;38606;52.986;6.980;2024-02-21T11:59:33;10.60;99.90
52709;DHT22;38606;52.986;6.980;2024-02-21T12:02:00;10.70;99.90
52709;DHT22;38606;52.986;6.980;2024-02-21T12:04:26;10.70;99.90
52709;DHT22;38606;52.986;6.980;2024-02-21T12:06:56;10.60;99.90
52709;DHT22;38606;52.986;6.980;2024-02-21T12:09:23;10.50;99.90
52709;DHT22;38606;52.986;6.980;2024-02-21T12:12:09;10.50;99.90
52709;DHT22;38606;52.986;6.980;2024-02-21T12:14:35;10.60;99.90
52709;DHT22;38606;52.986;6.980;2024-02-21T12:17:02;10.70;99.90
52709;DHT22;38606;52.986;6.980;2024-02-21T12:19:32;10.70;99.90
52709;DHT22;38606;52.986;6.980;2024-02-21T12:22:01;10.40;99.90
52709;DHT22;38606;52.986;6.980;2024-02-21T12:24:31;10.60;99.90
52709;DHT22;38606;52.986;6.980;2024-02-21T12:26:57;10.40;99.90
52709;DHT22;38606;52.986;6.980;2024-02-21T12:29:24;10.50;99.90
52709;DHT22;38606;52.986;6.980;2024-02-21T12:31:50;10.70;99.90
52709;DHT22;38606;52.986;6.980;2024-02-21T12:34:17;10.50;99.90
52709;DHT22;38606;52.986;6.980;2024-02-21T12:36:44;10.70;99.90
52709;DHT22;38606;52.986;6.980;2024-02-21T12:39:10;10.70;99.90
52709;DHT22;38606;52.986;6.980;2024-02-21T12:41:37;10.70;99.90
52709;DHT22;38606;52.986;6.980;2024-02-21T12:44:10;10.80;99.90
52709;DHT22;38606;52.986;6.980;2024-02-21T12:46:39;10.50;99.90
52709;DHT22;38606;52.986;6.980;2024-02-21T12:49:05;10.40;99.90
52709;DHT22;38606;52.986;6.980;2024-02-21T12:51:33;10.50;99.90
52709;DHT22;38606;52.986;6.980;2024-02-21T12:53:59;10.40;99.90
52709;DHT22;38606;52.986;6.980;2024-02-21T12:56:26;10.40;99.90
52709;DHT22;38606;52.986;6.980;2024-02-21T12:58:53;10.60;99.90
52709;DHT22;38606;52.986;6.980;2024-02-21T13:01:19;10.60;99.90
52709;DHT22;38606;52.986;6.980;2024-02-21T13:03:46;10.70;99.90
52709;DHT22;38606;52.986;6.980;2024-02-21T13:06:13;10.60;99.90
52709;DHT22;38606;52.986;6.980;2024-02-21T13:08:39;10.60;99.90
52709;DHT22;38606;52.986;6.980;2024-02-21T13:11:05;10.50;99.90
52709;DHT22;38606;52.986;6.980;2024-02-21T13:13:31;10.70;99.90
52709;DHT22;38606;52.986;6.980;2024-02-21T13:16:01;10.20;99.90
52709;DHT22;38606;52.986;6.980;2024-02-21T13:18:27;10.50;99.90
52709;DHT22;38606;52.986;6.980;2024-02-21T13:20:53;10.30;99.90
52709;DHT22;38606;52.986;6.980;2024-02-21T13:23:19;10.40;99.90
52709;DHT22;38606;52.986;6.980;2024-02-21T13:25:47;10.20;99.90
52709;DHT22;38606;52.986;6.980;2024-02-21T13:28:12;10.40;99.90
52709;DHT22;38606;52.986;6.980;2024-02-21T13:30:40;10.30;99.90
52709;DHT22;38606;52.986;6.980;2024-02-21T13:33:06;10.50;99.90
52709;DHT22;38606;52.986;6.980;2024-02-21T13:35:32;10.40;99.90
52709;DHT22;38606;52.986;6.980;2024-02-21T13:37:58;10.50;99.90
52709;DHT22;38606;52.986;6.980;2024-02-21T13:40:24;10.40;99.90
52709;DHT22;38606;52.986;6.980;2024-02-21T13:42:51;10.40;99.90
52709;DHT22;38606;52.986;6.980;2024-02-21T13:45:17;10.60;99.90
52709;DHT22;38606;52.986;6.980;2024-02-21T13:47:42;10.50;99.90
52709;DHT22;38606;52.986;6.980;2024-02-21T13:50:08;10.60;99.90
52709;DHT22;38606;52.986;6.980;2024-02-21T13:52:37;10.40;99.90
52709;DHT22;38606;52.986;6.980;2024-02-21T13:55:03;10.40;99.90
52709;DHT22;38606;52.986;6.980;2024-02-21T13:57:29;10.40;99.90
52709;DHT22;38606;52.986;6.980;2024-02-21T13:59:55;10.50;99.90
52709;DHT22;38606;52.986;6.980;2024-02-21T14:02:20;10.70;99.90
52709;DHT22;38606;52.986;6.980;2024-02-21T14:04:47;10.60;99.90
52709;DHT22;38606;52.986;6.980;2024-02-21T14:07:13;10.40;99.90
52709;DHT22;38606;52.986;6.980;2024-02-21T14:09:38;10.50;99.90
52709;DHT22;38606;52.986;6.980;2024-02-21T14:12:04;10.40;99.90
52709;DHT22;38606;52.986;6.980;2024-02-21T14:14:37;10.50;99.90
52709;DHT22;38606;52.986;6.980;2024-02-21T14:17:03;10.50;99.90
52709;DHT22;38606;52.986;6.980;2024-02-21T14:19:29;10.40;99.90
52709;DHT22;38606;52.986;6.980;2024-02-21T14:21:55;10.30;99.90
52709;DHT22;38606;52.986;6.980;2024-02-21T14:24:22;10.50;99.90
52709;DHT22;38606;52.986;6.980;2024-02-21T14:26:48;10.40;99.90
52709;DHT22;38606;52.986;6.980;2024-02-21T14:29:14;10.40;99.90
52709;DHT22;38606;52.986;6.980;2024-02-21T14:31:40;10.40;99.90
52709;DHT22;38606;52.986;6.980;2024-02-21T14:34:06;10.10;99.90
52709;DHT22;38606;52.986;6.980;2024-02-21T14:36:33;10.40;99.90
52709;DHT22;38606;52.986;6.980;2024-02-21T14:38:59;10.30;99.90
52709;DHT22;38606;52.986;6.980;2024-02-21T14:41:25;10.10;99.90
52709;DHT22;38606;52.986;6.980;2024-02-21T14:43:51;10.20;99.90
52709;DHT22;38606;52.986;6.980;2024-02-21T14:46:17;10.30;99.90
52709;DHT22;38606;52.986;6.980;2024-02-21T14:48:42;10.10;99.90
52709;DHT22;38606;52.986;6.980;2024-02-21T14:51:08;10.10;99.90
52709;DHT22;38606;52.986;6.980;2024-02-21T14:53:34;10.30;99.90
52709;DHT22;38606;52.986;6.980;2024-02-21T14:56:00;10.10;99.90
52709;DHT22;38606;52.986;6.980;2024-02-21T14:58:25;10.10;99.90
52709;DHT22;38606;52.986;6.980;2024-02-21T15:00:51;10.00;99.90
52709;DHT22;38606;52.986;6.980;2024-02-21T15:03:17;10.10;99.90
52709;DHT22;38606;52.986;6.980;2024-02-21T15:05:46;10.00;99.90
52709;DHT22;38606;52.986;6.980;2024-02-21T15:08:12;9.90;99.90
52709;DHT22;38606;52.986;6.980;2024-02-21T15:10:42;10.10;99.90
52709;DHT22;38606;52.986;6.980;2024-02-21T15:13:08;10.10;99.90
52709;DHT22;38606;52.986;6.980;2024-02-21T15:15:34;9.80;99.90
52709;DHT22;38606;52.986;6.980;2024-02-21T15:18:00;10.20;99.90
52709;DHT22;38606;52.986;6.980;2024-02-21T15:20:25;9.90;99.90
52709;DHT22;38606;52.986;6.980;2024-02-21T15:22:53;10.10;99.90
52709;DHT22;38606;52.986;6.980;2024-02-21T15:25:19;9.80;99.90
52709;DHT22;38606;52.986;6.980;2024-02-21T15:27:45;10.00;99.90
52709;DHT22;38606;52.986;6.980;2024-02-21T15:30:11;9.90;99.90
52709;DHT22;38606;52.986;6.980;2024-02-21T15:32:40;10.10;99.90
52709;DHT22;38606;52.986;6.980;2024-02-21T15:35:09;9.80;99.90
52709;DHT22;38606;52.986;6.980;2024-02-21T15:37:38;10.10;99.90
52709;DHT22;38606;52.986;6.980;2024-02-21T15:40:05;10.90;99.90